Hishimaru — JD3929 — position and weather

sailwx.info

Track history (hours):
 
Tides and Currents Weather Stations Pressure Air Temp Water Temp Dewpoint Dewpoint Depression Visibility Wind Speed Wind Dir Waves Ship Positions

Hishimaru

Last reported at 2018-Jun-20 07:32 UTC. Time now 2018-Jun-21 12:02 UTC.
Position N 34°22' E 134°23'.

Length 67 m; draft 4.3 m.

Type: Tanker. MMSI: 431007082.

Date/timePositionNaut miles runAvg speedWind from/ knotsBaromVisibWave heightAir tempDewpointWater temp
2018-Jun-20 07:32N 34°22' E 134°23'013.4
2018-Jun-20 07:30N 34°22' E 134°23'612.8
2018-Jun-20 07:00N 34°19' E 134°30'912.1
2018-Jun-20 06:17N 34°14' E 134°39'311.8
2018-Jun-20 06:00N 34°12' E 134°41'612.2
2018-Jun-20 05:29N 34°06' E 134°46'611.8
2018-Jun-20 05:00N 34°02' E 134°50'612.3
2018-Jun-20 04:30N 33°58' E 134°55'611.9
2018-Jun-20 04:00N 33°53' E 135°00'24810.4
2018-Jun-19 04:10N 35°13' E 139°46'213.2
2018-Jun-19 03:59N 35°15' E 139°46'612.7
2018-Jun-19 03:30N 35°20' E 139°42'611.7
2018-Jun-19 03:00N 35°26' E 139°45'15 0.4
2018-Jun-17 14:56N 35°33' E 140°01'612.6
2018-Jun-17 14:29N 35°30' E 139°55'612.5
2018-Jun-17 14:00N 35°27' E 139°49'612.1
2018-Jun-17 13:30N 35°21' E 139°45'510.9
2018-Jun-17 13:00N 35°16' E 139°46'  
2018-Jun-13 02:41N 35°07' E 139°45'313.6
2018-Jun-13 02:27N 35°10' E 139°46'613.0
2018-Jun-13 02:00N 35°16' E 139°46'612.4
2018-Jun-13 01:29N 35°22' E 139°42'611.8
2018-Jun-13 01:00N 35°26' E 139°46'713.1
2018-Jun-13 00:28N 35°31' E 139°53'  
Track history (hours):
 
Tides and Currents Weather Stations Pressure Air Temp Water Temp Dewpoint Dewpoint Depression Visibility Wind Speed Wind Dir Waves Ship Positions

Hishimaru

Last reported at 2018-Jun-20 07:32 UTC. Time now 2018-Jun-21 12:02 UTC.
Position N 34°22' E 134°23'.

Length 67 m; draft 4.3 m.

Type: Tanker. MMSI: 431007082.

Date/timePositionNaut miles runAvg speedWind from/ knotsBaromVisibWave heightAir tempDewpointWater temp
2018-Jun-20 07:32N 34°22' E 134°23'013.4
2018-Jun-20 07:30N 34°22' E 134°23'612.8
2018-Jun-20 07:00N 34°19' E 134°30'912.1
2018-Jun-20 06:17N 34°14' E 134°39'311.8
2018-Jun-20 06:00N 34°12' E 134°41'612.2
2018-Jun-20 05:29N 34°06' E 134°46'611.8
2018-Jun-20 05:00N 34°02' E 134°50'612.3
2018-Jun-20 04:30N 33°58' E 134°55'611.9
2018-Jun-20 04:00N 33°53' E 135°00'24810.4
2018-Jun-19 04:10N 35°13' E 139°46'213.2
2018-Jun-19 03:59N 35°15' E 139°46'612.7
2018-Jun-19 03:30N 35°20' E 139°42'611.7
2018-Jun-19 03:00N 35°26' E 139°45'15 0.4
2018-Jun-17 14:56N 35°33' E 140°01'612.6
2018-Jun-17 14:29N 35°30' E 139°55'612.5
2018-Jun-17 14:00N 35°27' E 139°49'612.1
2018-Jun-17 13:30N 35°21' E 139°45'510.9
2018-Jun-17 13:00N 35°16' E 139°46'  
2018-Jun-13 02:41N 35°07' E 139°45'313.6
2018-Jun-13 02:27N 35°10' E 139°46'613.0
2018-Jun-13 02:00N 35°16' E 139°46'612.4
2018-Jun-13 01:29N 35°22' E 139°42'611.8
2018-Jun-13 01:00N 35°26' E 139°46'713.1
2018-Jun-13 00:28N 35°31' E 139°53'  

Dump ship's entire track history